sensor_id;sensor_type;location;lat;lon;timestamp;pressure;altitude;pressure_sealevel;temperature;humidity
36234;BME280;43467;50.890;5.982;2023-07-20T00:01:45;100054.22;;;18.66;78.52
36234;BME280;43467;50.890;5.982;2023-07-20T00:04:12;100051.44;;;18.56;78.79
36234;BME280;43467;50.890;5.982;2023-07-20T00:06:38;100057.28;;;18.62;78.35
36234;BME280;43467;50.890;5.982;2023-07-20T00:09:06;100055.69;;;18.70;78.29
36234;BME280;43467;50.890;5.982;2023-07-20T00:11:35;100057.63;;;18.68;78.68
36234;BME280;43467;50.890;5.982;2023-07-20T00:14:02;100054.34;;;18.42;79.54
36234;BME280;43467;50.890;5.982;2023-07-20T00:16:27;100059.47;;;18.56;79.17
36234;BME280;43467;50.890;5.982;2023-07-20T00:18:54;100045.44;;;18.64;79.05
36234;BME280;43467;50.890;5.982;2023-07-20T00:21:19;100045.44;;;18.64;78.87
36234;BME280;43467;50.890;5.982;2023-07-20T00:23:45;99968.88;;;18.17;78.10
36234;BME280;43467;50.890;5.982;2023-07-20T00:26:11;99968.88;;;18.17;78.13
36234;BME280;43467;50.890;5.982;2023-07-20T00:28:37;100037.44;;;18.53;79.01
36234;BME280;43467;50.890;5.982;2023-07-20T00:31:03;100064.47;;;18.61;78.44
36234;BME280;43467;50.890;5.982;2023-07-20T00:33:29;100046.31;;;18.53;78.78
36234;BME280;43467;50.890;5.982;2023-07-20T00:35:55;99984.84;;;18.07;79.74
36234;BME280;43467;50.890;5.982;2023-07-20T00:38:21;100004.06;;;18.13;79.77
36234;BME280;43467;50.890;5.982;2023-07-20T00:40:46;100069.72;;;18.29;80.41
36234;BME280;43467;50.890;5.982;2023-07-20T00:43:13;99985.94;;;17.94;80.22
36234;BME280;43467;50.890;5.982;2023-07-20T00:45:38;100023.66;;;18.02;80.20
36234;BME280;43467;50.890;5.982;2023-07-20T00:48:05;99973.53;;;17.71;80.66
36234;BME280;43467;50.890;5.982;2023-07-20T00:50:33;99994.56;;;17.86;80.46
36234;BME280;43467;50.890;5.982;2023-07-20T00:52:59;100066.19;;;18.18;80.70
36234;BME280;43467;50.890;5.982;2023-07-20T00:55:25;100020.75;;;17.94;80.66
36234;BME280;43467;50.890;5.982;2023-07-20T00:57:52;99968.78;;;17.63;81.08
36234;BME280;43467;50.890;5.982;2023-07-20T01:00:18;99983.13;;;17.73;81.16
36234;BME280;43467;50.890;5.982;2023-07-20T01:02:44;99992.88;;;17.85;80.51
36234;BME280;43467;50.890;5.982;2023-07-20T01:05:10;99979.22;;;17.77;80.24
36234;BME280;43467;50.890;5.982;2023-07-20T01:10:43;100040.38;;;18.17;80.47
36234;BME280;43467;50.890;5.982;2023-07-20T01:13:10;100027.47;;;17.99;79.95
36234;BME280;43467;50.890;5.982;2023-07-20T01:15:36;99986.66;;;17.74;80.30
36234;BME280;43467;50.890;5.982;2023-07-20T01:18:02;100002.72;;;17.74;80.56
36234;BME280;43467;50.890;5.982;2023-07-20T01:20:32;100017.97;;;17.84;80.52
36234;BME280;43467;50.890;5.982;2023-07-20T01:23:22;100040.00;;;17.99;81.01
36234;BME280;43467;50.890;5.982;2023-07-20T01:26:08;100042.69;;;17.99;81.08
36234;BME280;43467;50.890;5.982;2023-07-20T01:31:37;100042.69;;;17.99;80.61
36234;BME280;43467;50.890;5.982;2023-07-20T01:34:05;100007.72;;;17.78;80.70
36234;BME280;43467;50.890;5.982;2023-07-20T01:36:35;100023.78;;;17.78;79.98
36234;BME280;43467;50.890;5.982;2023-07-20T01:39:03;99946.69;;;17.26;80.91
36234;BME280;43467;50.890;5.982;2023-07-20T01:41:30;99932.09;;;17.30;79.75
36234;BME280;43467;50.890;5.982;2023-07-20T01:43:58;100038.53;;;17.95;79.64
36234;BME280;43467;50.890;5.982;2023-07-20T01:46:25;99968.72;;;17.41;79.36
36234;BME280;43467;50.890;5.982;2023-07-20T01:48:50;99947.03;;;17.33;79.19
36234;BME280;43467;50.890;5.982;2023-07-20T01:51:16;100007.63;;;17.69;80.03
36234;BME280;43467;50.890;5.982;2023-07-20T01:53:43;100040.09;;;17.97;78.58
36234;BME280;43467;50.890;5.982;2023-07-20T01:56:09;100035.59;;;17.98;79.11
36234;BME280;43467;50.890;5.982;2023-07-20T01:58:34;100042.66;;;18.10;78.32
36234;BME280;43467;50.890;5.982;2023-07-20T02:01:01;100027.47;;;17.99;78.30
36234;BME280;43467;50.890;5.982;2023-07-20T02:03:27;100017.00;;;17.96;77.71
36234;BME280;43467;50.890;5.982;2023-07-20T02:05:53;99979.25;;;17.66;77.06
36234;BME280;43467;50.890;5.982;2023-07-20T02:08:18;99960.25;;;17.80;76.55
36234;BME280;43467;50.890;5.982;2023-07-20T02:10:48;99991.91;;;17.86;77.22
36234;BME280;43467;50.890;5.982;2023-07-20T02:13:14;99974.13;;;17.74;76.95
36234;BME280;43467;50.890;5.982;2023-07-20T02:15:42;99990.19;;;17.85;77.26
36234;BME280;43467;50.890;5.982;2023-07-20T02:18:08;99992.38;;;17.91;76.84
36234;BME280;43467;50.890;5.982;2023-07-20T02:20:35;100034.03;;;18.18;76.61
36234;BME280;43467;50.890;5.982;2023-07-20T02:23:00;100006.63;;;18.03;76.92
36234;BME280;43467;50.890;5.982;2023-07-20T02:25:26;99993.59;;;17.98;76.82
36234;BME280;43467;50.890;5.982;2023-07-20T02:27:52;100006.28;;;17.96;77.09
36234;BME280;43467;50.890;5.982;2023-07-20T02:30:17;99988.47;;;17.73;77.08
36234;BME280;43467;50.890;5.982;2023-07-20T02:32:43;100010.03;;;17.83;77.72
36234;BME280;43467;50.890;5.982;2023-07-20T02:35:16;99972.66;;;17.59;77.18
36234;BME280;43467;50.890;5.982;2023-07-20T02:37:42;100039.13;;;17.98;77.14
36234;BME280;43467;50.890;5.982;2023-07-20T02:40:08;100042.94;;;17.96;77.03
36234;BME280;43467;50.890;5.982;2023-07-20T02:42:35;100021.09;;;17.89;77.55
36234;BME280;43467;50.890;5.982;2023-07-20T02:45:02;100053.03;;;17.92;77.30
36234;BME280;43467;50.890;5.982;2023-07-20T02:47:28;100037.19;;;17.89;77.10
36234;BME280;43467;50.890;5.982;2023-07-20T02:49:54;100053.25;;;17.89;77.25
36234;BME280;43467;50.890;5.982;2023-07-20T02:52:20;100046.44;;;17.85;77.29
36234;BME280;43467;50.890;5.982;2023-07-20T02:54:46;100001.31;;;17.46;78.40
36234;BME280;43467;50.890;5.982;2023-07-20T02:57:11;100021.94;;;17.56;78.60
36234;BME280;43467;50.890;5.982;2023-07-20T02:59:38;100009.59;;;17.32;78.75
36234;BME280;43467;50.890;5.982;2023-07-20T03:02:03;100007.53;;;17.46;78.49
36234;BME280;43467;50.890;5.982;2023-07-20T03:04:29;100043.25;;;17.58;78.61
36234;BME280;43467;50.890;5.982;2023-07-20T03:06:54;100042.28;;;17.59;78.61
36234;BME280;43467;50.890;5.982;2023-07-20T03:09:20;99996.28;;;17.19;79.11
36234;BME280;43467;50.890;5.982;2023-07-20T03:11:46;100050.06;;;17.62;78.51
36234;BME280;43467;50.890;5.982;2023-07-20T03:14:11;100052.53;;;17.41;78.91
36234;BME280;43467;50.890;5.982;2023-07-20T03:16:38;100052.59;;;17.52;78.88
36234;BME280;43467;50.890;5.982;2023-07-20T03:19:03;100032.16;;;17.16;79.51
36234;BME280;43467;50.890;5.982;2023-07-20T03:21:30;100035.53;;;17.07;80.08
36234;BME280;43467;50.890;5.982;2023-07-20T03:23:56;100065.84;;;17.19;80.49
36234;BME280;43467;50.890;5.982;2023-07-20T03:26:22;100076.31;;;17.22;80.04
36234;BME280;43467;50.890;5.982;2023-07-20T03:28:48;100014.94;;;16.97;79.73
36234;BME280;43467;50.890;5.982;2023-07-20T03:31:13;100031.50;;;17.02;80.01
36234;BME280;43467;50.890;5.982;2023-07-20T03:33:40;100074.88;;;17.29;80.08
36234;BME280;43467;50.890;5.982;2023-07-20T03:36:06;100075.72;;;17.30;79.76
36234;BME280;43467;50.890;5.982;2023-07-20T03:38:31;100052.31;;;17.09;80.09
36234;BME280;43467;50.890;5.982;2023-07-20T03:40:59;100040.88;;;17.07;79.89
36234;BME280;43467;50.890;5.982;2023-07-20T03:43:26;100050.59;;;17.08;80.31
36234;BME280;43467;50.890;5.982;2023-07-20T03:45:52;100023.16;;;16.83;80.33
36234;BME280;43467;50.890;5.982;2023-07-20T03:48:20;100091.78;;;17.30;80.36
36234;BME280;43467;50.890;5.982;2023-07-20T03:50:48;100045.69;;;16.91;80.04
36234;BME280;43467;50.890;5.982;2023-07-20T03:53:14;100080.22;;;17.29;80.31
36234;BME280;43467;50.890;5.982;2023-07-20T03:55:41;100083.38;;;17.23;80.51
36234;BME280;43467;50.890;5.982;2023-07-20T03:58:07;100015.50;;;16.89;80.54
36234;BME280;43467;50.890;5.982;2023-07-20T04:00:33;100074.88;;;17.29;80.02
36234;BME280;43467;50.890;5.982;2023-07-20T04:02:59;100097.03;;;17.31;80.61
36234;BME280;43467;50.890;5.982;2023-07-20T04:05:24;100058.75;;;17.07;80.17
36234;BME280;43467;50.890;5.982;2023-07-20T04:07:51;100093.88;;;17.37;80.28
36234;BME280;43467;50.890;5.982;2023-07-20T04:10:17;100041.56;;;16.98;80.72
36234;BME280;43467;50.890;5.982;2023-07-20T04:12:43;100010.50;;;16.85;80.82
36234;BME280;43467;50.890;5.982;2023-07-20T04:15:09;100078.91;;;17.24;80.99
36234;BME280;43467;50.890;5.982;2023-07-20T04:17:35;100101.88;;;17.26;81.53
36234;BME280;43467;50.890;5.982;2023-07-20T04:20:00;100037.22;;;17.08;81.07
36234;BME280;43467;50.890;5.982;2023-07-20T04:22:26;100094.28;;;17.44;80.75
36234;BME280;43467;50.890;5.982;2023-07-20T04:24:52;100092.22;;;17.47;80.66
36234;BME280;43467;50.890;5.982;2023-07-20T04:27:18;100090.25;;;17.38;81.23
36234;BME280;43467;50.890;5.982;2023-07-20T04:29:43;100087.47;;;17.40;81.49
36234;BME280;43467;50.890;5.982;2023-07-20T04:32:09;100067.34;;;17.23;81.24
36234;BME280;43467;50.890;5.982;2023-07-20T04:34:34;100127.03;;;17.47;80.92
36234;BME280;43467;50.890;5.982;2023-07-20T04:37:05;100037.13;;;17.10;81.04
36234;BME280;43467;50.890;5.982;2023-07-20T04:39:31;100080.72;;;17.23;81.82
36234;BME280;43467;50.890;5.982;2023-07-20T04:41:57;100098.44;;;17.48;81.31
36234;BME280;43467;50.890;5.982;2023-07-20T04:44:23;100104.75;;;17.47;81.47
36234;BME280;43467;50.890;5.982;2023-07-20T04:46:49;100023.78;;;16.86;81.74
36234;BME280;43467;50.890;5.982;2023-07-20T04:49:15;100081.31;;;17.27;82.19
36234;BME280;43467;50.890;5.982;2023-07-20T04:51:41;100045.03;;;17.11;81.42
36234;BME280;43467;50.890;5.982;2023-07-20T04:54:07;100077.09;;;17.35;81.23
36234;BME280;43467;50.890;5.982;2023-07-20T04:56:33;100020.63;;;16.92;82.07
36234;BME280;43467;50.890;5.982;2023-07-20T04:58:59;100056.50;;;17.25;81.65
36234;BME280;43467;50.890;5.982;2023-07-20T05:01:24;100106.94;;;17.53;81.74
36234;BME280;43467;50.890;5.982;2023-07-20T05:03:50;100100.38;;;17.57;81.70
36234;BME280;43467;50.890;5.982;2023-07-20T05:06:15;100059.88;;;17.15;82.23
36234;BME280;43467;50.890;5.982;2023-07-20T05:08:44;100087.88;;;17.23;82.49
36234;BME280;43467;50.890;5.982;2023-07-20T05:11:11;100093.69;;;17.51;81.88
36234;BME280;43467;50.890;5.982;2023-07-20T05:13:37;100095.72;;;17.60;81.42
36234;BME280;43467;50.890;5.982;2023-07-20T05:16:03;100105.13;;;17.53;81.43
36234;BME280;43467;50.890;5.982;2023-07-20T05:18:29;100067.44;;;17.22;81.88
36234;BME280;43467;50.890;5.982;2023-07-20T05:20:54;100063.09;;;17.32;81.07
36234;BME280;43467;50.890;5.982;2023-07-20T05:23:20;100107.94;;;17.52;81.28
36234;BME280;43467;50.890;5.982;2023-07-20T05:25:47;100027.31;;;17.33;80.51
36234;BME280;43467;50.890;5.982;2023-07-20T05:28:13;100029.72;;;17.25;80.92
36234;BME280;43467;50.890;5.982;2023-07-20T05:30:40;100080.81;;;17.56;81.09
36234;BME280;43467;50.890;5.982;2023-07-20T05:33:05;100030.63;;;17.36;80.40
36234;BME280;43467;50.890;5.982;2023-07-20T05:35:31;100098.91;;;17.53;81.24
36234;BME280;43467;50.890;5.982;2023-07-20T05:37:56;100077.22;;;17.45;81.63
36234;BME280;43467;50.890;5.982;2023-07-20T05:40:22;100016.34;;;17.13;81.10
36234;BME280;43467;50.890;5.982;2023-07-20T05:42:48;100084.75;;;17.63;80.60
36234;BME280;43467;50.890;5.982;2023-07-20T05:45:17;100064.50;;;17.48;81.20
36234;BME280;43467;50.890;5.982;2023-07-20T05:47:43;100002.09;;;17.13;80.71
36234;BME280;43467;50.890;5.982;2023-07-20T05:50:09;100083.59;;;17.55;81.53
36234;BME280;43467;50.890;5.982;2023-07-20T05:52:36;100050.22;;;17.37;81.64
36234;BME280;43467;50.890;5.982;2023-07-20T05:55:03;100069.47;;;17.53;80.80
36234;BME280;43467;50.890;5.982;2023-07-20T05:57:32;100028.34;;;17.43;80.58
36234;BME280;43467;50.890;5.982;2023-07-20T05:59:59;100075.28;;;17.71;80.46
36234;BME280;43467;50.890;5.982;2023-07-20T06:02:24;100044.16;;;17.46;80.09
36234;BME280;43467;50.890;5.982;2023-07-20T06:04:52;100073.09;;;17.64;80.36
36234;BME280;43467;50.890;5.982;2023-07-20T06:07:18;100048.91;;;17.42;80.30
36234;BME280;43467;50.890;5.982;2023-07-20T06:09:45;100043.88;;;17.38;81.03
36234;BME280;43467;50.890;5.982;2023-07-20T06:12:13;100075.16;;;17.37;81.35
36234;BME280;43467;50.890;5.982;2023-07-20T06:14:38;100096.31;;;17.64;81.29
36234;BME280;43467;50.890;5.982;2023-07-20T06:17:04;100142.38;;;17.80;81.11
36234;BME280;43467;50.890;5.982;2023-07-20T06:19:30;100088.41;;;17.74;80.78
36234;BME280;43467;50.890;5.982;2023-07-20T06:21:56;100122.19;;;17.87;80.45
36234;BME280;43467;50.890;5.982;2023-07-20T06:24:22;100084.66;;;17.76;80.75
36234;BME280;43467;50.890;5.982;2023-07-20T06:26:48;100073.97;;;17.76;79.50
36234;BME280;43467;50.890;5.982;2023-07-20T06:29:14;100070.53;;;17.74;79.94
36234;BME280;43467;50.890;5.982;2023-07-20T06:31:39;100038.00;;;17.56;79.20
36234;BME280;43467;50.890;5.982;2023-07-20T06:34:05;100070.78;;;17.71;79.31
36234;BME280;43467;50.890;5.982;2023-07-20T06:36:31;100150.84;;;18.20;78.83
36234;BME280;43467;50.890;5.982;2023-07-20T06:38:59;100121.47;;;17.96;78.67
36234;BME280;43467;50.890;5.982;2023-07-20T06:41:25;100113.69;;;18.04;78.70
36234;BME280;43467;50.890;5.982;2023-07-20T06:43:51;100105.13;;;17.88;79.00
36234;BME280;43467;50.890;5.982;2023-07-20T06:46:17;100108.06;;;18.07;78.21
36234;BME280;43467;50.890;5.982;2023-07-20T06:48:43;100066.38;;;17.81;77.25
36234;BME280;43467;50.890;5.982;2023-07-20T06:51:08;100041.06;;;17.85;76.44
36234;BME280;43467;50.890;5.982;2023-07-20T06:53:34;100093.59;;;18.32;76.01
36234;BME280;43467;50.890;5.982;2023-07-20T06:56:01;100097.75;;;18.25;76.38
36234;BME280;43467;50.890;5.982;2023-07-20T06:58:33;100048.16;;;18.08;75.92
36234;BME280;43467;50.890;5.982;2023-07-20T07:01:06;100040.13;;;18.20;75.84
36234;BME280;43467;50.890;5.982;2023-07-20T07:03:32;100038.53;;;18.17;75.64
36234;BME280;43467;50.890;5.982;2023-07-20T07:05:59;100148.44;;;18.73;74.03
36234;BME280;43467;50.890;5.982;2023-07-20T07:08:25;100132.81;;;18.89;73.34
36234;BME280;43467;50.890;5.982;2023-07-20T07:10:52;100084.19;;;18.49;73.22
36234;BME280;43467;50.890;5.982;2023-07-20T07:13:18;100080.56;;;18.50;73.42
36234;BME280;43467;50.890;5.982;2023-07-20T07:15:44;100141.94;;;18.97;71.71
36234;BME280;43467;50.890;5.982;2023-07-20T07:18:11;100121.44;;;18.96;72.52
36234;BME280;43467;50.890;5.982;2023-07-20T07:20:37;100084.91;;;18.73;72.41
36234;BME280;43467;50.890;5.982;2023-07-20T07:23:02;100149.34;;;19.05;73.03
36234;BME280;43467;50.890;5.982;2023-07-20T07:25:28;100107.09;;;18.75;72.25
36234;BME280;43467;50.890;5.982;2023-07-20T07:27:54;100104.41;;;18.86;72.47
36234;BME280;43467;50.890;5.982;2023-07-20T07:30:21;100141.41;;;19.15;72.54
36234;BME280;43467;50.890;5.982;2023-07-20T07:32:48;100104.84;;;18.91;72.51
36234;BME280;43467;50.890;5.982;2023-07-20T07:35:14;100081.28;;;18.74;71.68
36234;BME280;43467;50.890;5.982;2023-07-20T07:37:40;100158.91;;;19.30;71.30
36234;BME280;43467;50.890;5.982;2023-07-20T07:40:06;100070.88;;;18.81;71.12
36234;BME280;43467;50.890;5.982;2023-07-20T07:42:33;100084.25;;;18.92;70.58
36234;BME280;43467;50.890;5.982;2023-07-20T07:44:58;100135.41;;;19.22;70.46
36234;BME280;43467;50.890;5.982;2023-07-20T07:47:24;100121.59;;;18.95;69.73
36234;BME280;43467;50.890;5.982;2023-07-20T07:49:49;100177.50;;;19.22;70.66
36234;BME280;43467;50.890;5.982;2023-07-20T07:52:15;100124.38;;;18.93;69.41
36234;BME280;43467;50.890;5.982;2023-07-20T07:54:41;100171.66;;;19.17;68.07
36234;BME280;43467;50.890;5.982;2023-07-20T07:57:07;100145.81;;;19.04;68.30
36234;BME280;43467;50.890;5.982;2023-07-20T07:59:32;100128.41;;;18.99;68.25
36234;BME280;43467;50.890;5.982;2023-07-20T08:02:04;100135.06;;;19.04;69.69
36234;BME280;43467;50.890;5.982;2023-07-20T08:04:29;100172.59;;;19.27;70.41
36234;BME280;43467;50.890;5.982;2023-07-20T08:06:55;100149.31;;;19.27;70.39
36234;BME280;43467;50.890;5.982;2023-07-20T08:09:21;100163.78;;;19.47;70.15
36234;BME280;43467;50.890;5.982;2023-07-20T08:11:46;100166.75;;;19.65;68.64
36234;BME280;43467;50.890;5.982;2023-07-20T08:14:13;100151.44;;;19.44;69.42
36234;BME280;43467;50.890;5.982;2023-07-20T08:16:39;100160.53;;;19.64;68.61
36234;BME280;43467;50.890;5.982;2023-07-20T08:19:04;100117.41;;;19.34;65.52
36234;BME280;43467;50.890;5.982;2023-07-20T08:21:30;100133.28;;;19.48;65.55
36234;BME280;43467;50.890;5.982;2023-07-20T08:23:56;100145.44;;;19.41;63.18
36234;BME280;43467;50.890;5.982;2023-07-20T08:26:22;100172.84;;;19.67;63.32
36234;BME280;43467;50.890;5.982;2023-07-20T08:28:48;100150.00;;;19.72;62.27
36234;BME280;43467;50.890;5.982;2023-07-20T08:31:14;100143.56;;;19.64;61.28
36234;BME280;43467;50.890;5.982;2023-07-20T08:33:40;100140.94;;;19.73;63.16
36234;BME280;43467;50.890;5.982;2023-07-20T08:36:05;100143.41;;;19.65;64.38
36234;BME280;43467;50.890;5.982;2023-07-20T08:38:31;100163.28;;;19.74;64.36
36234;BME280;43467;50.890;5.982;2023-07-20T08:40:57;100167.69;;;19.95;64.29
36234;BME280;43467;50.890;5.982;2023-07-20T08:43:25;100134.06;;;19.80;62.81
36234;BME280;43467;50.890;5.982;2023-07-20T08:45:51;100174.97;;;19.84;59.31
36234;BME280;43467;50.890;5.982;2023-07-20T08:48:20;100135.31;;;19.56;58.56
36234;BME280;43467;50.890;5.982;2023-07-20T08:50:50;100135.34;;;19.65;59.60
36234;BME280;43467;50.890;5.982;2023-07-20T08:53:17;100106.47;;;19.58;60.70
36234;BME280;43467;50.890;5.982;2023-07-20T08:55:44;100096.66;;;19.47;60.08
36234;BME280;43467;50.890;5.982;2023-07-20T08:58:12;100152.69;;;19.72;59.39
36234;BME280;43467;50.890;5.982;2023-07-20T09:00:41;100091.91;;;19.39;57.85
36234;BME280;43467;50.890;5.982;2023-07-20T09:03:07;100157.25;;;19.81;58.34
36234;BME280;43467;50.890;5.982;2023-07-20T09:05:34;100145.00;;;19.68;57.80
36234;BME280;43467;50.890;5.982;2023-07-20T09:08:01;100176.41;;;19.88;59.08
36234;BME280;43467;50.890;5.982;2023-07-20T09:10:29;100111.78;;;19.69;59.79
36234;BME280;43467;50.890;5.982;2023-07-20T09:12:54;100170.09;;;19.99;60.06
36234;BME280;43467;50.890;5.982;2023-07-20T09:15:21;100172.28;;;20.05;60.25
36234;BME280;43467;50.890;5.982;2023-07-20T09:17:48;100130.16;;;19.84;59.59
36234;BME280;43467;50.890;5.982;2023-07-20T09:20:15;100148.72;;;19.97;57.86
36234;BME280;43467;50.890;5.982;2023-07-20T09:22:41;100156.34;;;20.13;58.70
36234;BME280;43467;50.890;5.982;2023-07-20T09:25:11;100152.94;;;20.11;58.52
36234;BME280;43467;50.890;5.982;2023-07-20T09:27:39;100130.94;;;19.96;59.06
36234;BME280;43467;50.890;5.982;2023-07-20T09:30:06;100177.00;;;20.33;59.03
36234;BME280;43467;50.890;5.982;2023-07-20T09:32:41;100132.66;;;20.07;58.29
36234;BME280;43467;50.890;5.982;2023-07-20T09:35:19;100165.88;;;20.26;58.59
36234;BME280;43467;50.890;5.982;2023-07-20T09:38:01;100162.84;;;20.31;58.50
36234;BME280;43467;50.890;5.982;2023-07-20T09:40:27;100157.06;;;20.35;57.95
36234;BME280;43467;50.890;5.982;2023-07-20T09:42:54;100142.06;;;20.33;57.91
36234;BME280;43467;50.890;5.982;2023-07-20T09:45:57;100154.63;;;20.63;57.43
36234;BME280;43467;50.890;5.982;2023-07-20T09:48:24;100154.84;;;20.50;57.28
36234;BME280;43467;50.890;5.982;2023-07-20T09:50:52;100081.66;;;20.16;56.95
36234;BME280;43467;50.890;5.982;2023-07-20T09:53:18;100150.31;;;20.51;54.98
36234;BME280;43467;50.890;5.982;2023-07-20T09:55:45;100160.59;;;20.66;55.86
36234;BME280;43467;50.890;5.982;2023-07-20T09:58:11;100161.53;;;20.56;56.50
36234;BME280;43467;50.890;5.982;2023-07-20T10:00:38;100151.81;;;20.64;56.92
36234;BME280;43467;50.890;5.982;2023-07-20T10:03:05;100170.75;;;20.63;56.88
36234;BME280;43467;50.890;5.982;2023-07-20T10:05:33;100172.47;;;20.64;56.01
36234;BME280;43467;50.890;5.982;2023-07-20T10:08:01;100133.09;;;20.53;55.64
36234;BME280;43467;50.890;5.982;2023-07-20T10:10:28;100159.06;;;20.73;54.65
36234;BME280;43467;50.890;5.982;2023-07-20T10:12:57;100148.44;;;20.72;55.89
36234;BME280;43467;50.890;5.982;2023-07-20T10:15:30;100151.44;;;20.78;55.16
36234;BME280;43467;50.890;5.982;2023-07-20T10:18:12;100160.25;;;20.90;56.03
36234;BME280;43467;50.890;5.982;2023-07-20T10:20:40;100138.06;;;20.67;54.70
36234;BME280;43467;50.890;5.982;2023-07-20T10:23:09;100151.91;;;20.93;55.24
36234;BME280;43467;50.890;5.982;2023-07-20T10:25:35;100151.94;;;21.03;54.54
36234;BME280;43467;50.890;5.982;2023-07-20T10:28:07;100125.84;;;21.03;54.19
36234;BME280;43467;50.890;5.982;2023-07-20T10:30:36;100161.34;;;21.18;53.52
36234;BME280;43467;50.890;5.982;2023-07-20T10:33:05;100145.28;;;21.07;53.25
36234;BME280;43467;50.890;5.982;2023-07-20T10:35:50;100139.06;;;21.16;53.58
36234;BME280;43467;50.890;5.982;2023-07-20T10:38:16;100138.63;;;21.11;54.18
36234;BME280;43467;50.890;5.982;2023-07-20T10:40:42;100141.22;;;21.22;54.17
36234;BME280;43467;50.890;5.982;2023-07-20T10:43:09;100126.63;;;21.15;52.61
36234;BME280;43467;50.890;5.982;2023-07-20T10:48:15;100102.91;;;21.09;52.76
36234;BME280;43467;50.890;5.982;2023-07-20T10:50:45;100090.16;;;21.01;53.52
36234;BME280;43467;50.890;5.982;2023-07-20T10:53:15;100098.34;;;21.00;52.13
36234;BME280;43467;50.890;5.982;2023-07-20T10:55:41;100129.31;;;21.24;52.84
36234;BME280;43467;50.890;5.982;2023-07-20T10:58:08;100131.28;;;21.32;52.37
36234;BME280;43467;50.890;5.982;2023-07-20T11:00:35;100139.81;;;21.37;52.98
36234;BME280;43467;50.890;5.982;2023-07-20T11:03:01;100118.25;;;21.37;50.22
36234;BME280;43467;50.890;5.982;2023-07-20T11:05:38;100129.31;;;21.53;48.22
36234;BME280;43467;50.890;5.982;2023-07-20T11:08:06;100111.19;;;21.55;49.49
36234;BME280;43467;50.890;5.982;2023-07-20T11:10:31;100130.75;;;21.57;50.67
36234;BME280;43467;50.890;5.982;2023-07-20T11:13:19;100126.50;;;21.55;50.10
36234;BME280;43467;50.890;5.982;2023-07-20T11:15:46;100124.50;;;21.57;51.00
36234;BME280;43467;50.890;5.982;2023-07-20T11:18:13;100126.03;;;21.69;51.50
36234;BME280;43467;50.890;5.982;2023-07-20T11:20:39;100093.03;;;21.38;50.38
36234;BME280;43467;50.890;5.982;2023-07-20T11:23:05;100075.75;;;21.31;49.94
36234;BME280;43467;50.890;5.982;2023-07-20T11:25:38;100118.53;;;21.53;49.83
36234;BME280;43467;50.890;5.982;2023-07-20T11:28:09;100085.38;;;21.53;49.78
36234;BME280;43467;50.890;5.982;2023-07-20T11:30:37;100105.63;;;21.76;49.14
36234;BME280;43467;50.890;5.982;2023-07-20T11:33:04;100121.50;;;21.69;48.68
36234;BME280;43467;50.890;5.982;2023-07-20T11:35:30;100107.06;;;21.42;48.50
36234;BME280;43467;50.890;5.982;2023-07-20T11:37:55;100109.34;;;21.56;47.83
36234;BME280;43467;50.890;5.982;2023-07-20T11:40:22;100078.56;;;21.49;47.59
36234;BME280;43467;50.890;5.982;2023-07-20T11:42:48;100094.69;;;21.77;47.95
36234;BME280;43467;50.890;5.982;2023-07-20T11:45:16;100034.81;;;21.84;48.41
36234;BME280;43467;50.890;5.982;2023-07-20T11:47:43;100121.41;;;22.37;46.62
36234;BME280;43467;50.890;5.982;2023-07-20T11:50:09;100102.22;;;22.30;46.24
36234;BME280;43467;50.890;5.982;2023-07-20T11:52:35;100091.66;;;22.46;45.27
36234;BME280;43467;50.890;5.982;2023-07-20T11:55:02;100097.44;;;22.61;45.88
36234;BME280;43467;50.890;5.982;2023-07-20T11:57:28;100060.47;;;22.34;44.16
36234;BME280;43467;50.890;5.982;2023-07-20T12:00:00;100093.25;;;22.66;45.17
36234;BME280;43467;50.890;5.982;2023-07-20T12:02:27;100054.16;;;22.53;43.37
36234;BME280;43467;50.890;5.982;2023-07-20T12:04:54;100078.22;;;22.64;43.23
36234;BME280;43467;50.890;5.982;2023-07-20T12:07:22;100081.75;;;22.74;43.40
36234;BME280;43467;50.890;5.982;2023-07-20T12:10:06;100090.00;;;22.73;42.99
36234;BME280;43467;50.890;5.982;2023-07-20T12:12:33;100090.09;;;22.81;43.21
36234;BME280;43467;50.890;5.982;2023-07-20T12:17:49;100083.13;;;23.05;44.09
36234;BME280;43467;50.890;5.982;2023-07-20T12:20:25;100072.84;;;23.09;42.42
36234;BME280;43467;50.890;5.982;2023-07-20T12:22:52;100040.97;;;22.95;42.11
36234;BME280;43467;50.890;5.982;2023-07-20T12:25:17;100074.84;;;23.07;41.97
36234;BME280;43467;50.890;5.982;2023-07-20T12:27:47;100026.25;;;22.62;42.34
36234;BME280;43467;50.890;5.982;2023-07-20T12:30:13;100034.00;;;22.75;41.80
36234;BME280;43467;50.890;5.982;2023-07-20T12:32:39;100030.16;;;22.77;41.80
36234;BME280;43467;50.890;5.982;2023-07-20T12:35:05;100013.88;;;22.87;41.57
36234;BME280;43467;50.890;5.982;2023-07-20T12:37:31;100043.34;;;23.15;41.97
36234;BME280;43467;50.890;5.982;2023-07-20T12:39:57;100016.00;;;23.10;41.67
36234;BME280;43467;50.890;5.982;2023-07-20T12:42:23;100047.63;;;23.18;41.39
36234;BME280;43467;50.890;5.982;2023-07-20T12:44:49;100077.47;;;23.52;41.49
36234;BME280;43467;50.890;5.982;2023-07-20T12:47:16;100050.28;;;23.36;41.06
36234;BME280;43467;50.890;5.982;2023-07-20T12:49:42;100007.72;;;23.12;41.90
36234;BME280;43467;50.890;5.982;2023-07-20T12:52:11;100025.16;;;23.35;40.34
36234;BME280;43467;50.890;5.982;2023-07-20T12:54:39;100059.66;;;23.59;40.58
36234;BME280;43467;50.890;5.982;2023-07-20T12:57:05;100071.31;;;23.59;41.14
36234;BME280;43467;50.890;5.982;2023-07-20T12:59:31;100046.28;;;23.57;40.87
36234;BME280;43467;50.890;5.982;2023-07-20T13:01:56;100033.47;;;23.59;39.48